Time;durP1;ratioP1;P1;durP2;ratioP2;P2;SDS_P1;SDS_P2;PMS_P1;PMS_P2;Temp;Humidity;BMP_temperature;BMP_pressure;BME280_temperature;BME280_humidity;BME280_pressure;Samples;Min_cycle;Max_cycle;Signal;HPM_P1;HPM_P2
2023/07/11 00:01:14;;;;;;;6.10;1.83;;;;;;;;;;6213892;23;20016;-61
2023/07/11 00:03:41;;;;;;;3.70;1.73;;;;;;;;;;6213692;23;20323;-61
2023/07/11 00:06:09;;;;;;;4.35;1.73;;;;;;;;;;6214221;23;20349;-61
2023/07/11 00:08:38;;;;;;;4.15;1.73;;;;;;;;;;6214296;23;20023;-61
2023/07/11 00:11:09;;;;;;;4.05;1.60;;;;;;;;;;6213629;23;20047;-61
2023/07/11 00:13:35;;;;;;;4.10;1.80;;;;;;;;;;6214236;23;20318;-61
2023/07/11 00:16:06;;;;;;;4.18;1.80;;;;;;;;;;6214028;23;20008;-61
2023/07/11 00:18:32;;;;;;;4.93;1.70;;;;;;;;;;6186613;23;20012;-61
2023/07/11 00:20:59;;;;;;;5.45;1.92;;;;;;;;;;6214168;23;20343;-61
2023/07/11 00:23:25;;;;;;;7.70;1.77;;;;;;;;;;6213877;23;20066;-61
2023/07/11 00:25:51;;;;;;;5.43;1.65;;;;;;;;;;6213676;23;20005;-61
2023/07/11 00:28:18;;;;;;;3.83;1.73;;;;;;;;;;6214092;23;20024;-61
2023/07/11 00:30:44;;;;;;;4.97;1.90;;;;;;;;;;6214087;23;20336;-61
2023/07/11 00:33:10;;;;;;;5.32;1.73;;;;;;;;;;6213368;23;20021;-61
2023/07/11 00:35:37;;;;;;;6.65;2.03;;;;;;;;;;6213373;23;20024;-61
2023/07/11 00:38:03;;;;;;;6.38;1.63;;;;;;;;;;6213895;23;20071;-61
2023/07/11 00:40:30;;;;;;;5.25;2.08;;;;;;;;;;6213554;23;20040;-61
2023/07/11 00:42:56;;;;;;;6.15;1.60;;;;;;;;;;6213375;23;20634;-61
2023/07/11 00:45:40;;;;;;;8.02;1.77;;;;;;;;;;6213815;23;20013;-61
2023/07/11 00:48:06;;;;;;;5.85;1.85;;;;;;;;;;6213583;23;20020;-61
2023/07/11 00:50:32;;;;;;;4.50;1.75;;;;;;;;;;6213887;23;20058;-61
2023/07/11 00:52:58;;;;;;;4.07;1.40;;;;;;;;;;6213708;23;20016;-61
2023/07/11 00:55:25;;;;;;;5.10;1.80;;;;;;;;;;6213350;23;20023;-61
2023/07/11 00:57:51;;;;;;;3.03;1.50;;;;;;;;;;6213832;23;20470;-61
2023/07/11 01:00:17;;;;;;;4.57;1.70;;;;;;;;;;6213911;23;20040;-61
2023/07/11 01:02:43;;;;;;;5.30;1.70;;;;;;;;;;6213393;23;20412;-61
2023/07/11 01:05:09;;;;;;;8.13;1.92;;;;;;;;;;6213325;23;20012;-61
2023/07/11 01:07:36;;;;;;;6.60;1.92;;;;;;;;;;6213851;23;20456;-61
2023/07/11 01:10:03;;;;;;;8.25;2.10;;;;;;;;;;6186666;23;20012;-61
2023/07/11 01:12:29;;;;;;;3.67;1.65;;;;;;;;;;6213061;23;20015;-61
2023/07/11 01:14:55;;;;;;;4.72;1.83;;;;;;;;;;6213281;23;20012;-61
2023/07/11 01:17:31;;;;;;;4.55;1.58;;;;;;;;;;6213599;23;20068;-61
2023/07/11 01:19:58;;;;;;;5.55;1.92;;;;;;;;;;6211835;23;20462;-61
2023/07/11 01:22:25;;;;;;;4.15;1.77;;;;;;;;;;6213385;23;20047;-61
2023/07/11 01:24:52;;;;;;;5.40;2.15;;;;;;;;;;6213426;23;20016;-61
2023/07/11 01:27:19;;;;;;;8.00;2.20;;;;;;;;;;6213086;23;20053;-61
2023/07/11 01:29:46;;;;;;;7.80;2.15;;;;;;;;;;6213739;23;20020;-61
2023/07/11 01:32:12;;;;;;;6.32;2.00;;;;;;;;;;6213287;23;20017;-61
2023/07/11 01:34:39;;;;;;;7.15;1.90;;;;;;;;;;6212362;23;20039;-61
2023/07/11 01:37:05;;;;;;;4.68;1.75;;;;;;;;;;6213468;23;20020;-61
2023/07/11 01:39:31;;;;;;;7.18;2.28;;;;;;;;;;6213338;23;20016;-61
2023/07/11 01:41:57;;;;;;;5.15;1.80;;;;;;;;;;6212686;23;20339;-61
2023/07/11 01:44:24;;;;;;;5.22;1.75;;;;;;;;;;6212708;23;20016;-61
2023/07/11 01:46:50;;;;;;;5.82;1.98;;;;;;;;;;6213080;23;20083;-61
2023/07/11 01:49:16;;;;;;;7.10;2.13;;;;;;;;;;6212873;23;20017;-61
2023/07/11 01:51:45;;;;;;;5.38;1.92;;;;;;;;;;6213057;23;20048;-61
2023/07/11 01:54:12;;;;;;;6.53;1.90;;;;;;;;;;6213143;23;20013;-61
2023/07/11 01:56:38;;;;;;;6.20;2.20;;;;;;;;;;6185801;23;20023;-61
2023/07/11 01:59:04;;;;;;;7.10;2.47;;;;;;;;;;6213053;23;20087;-61
2023/07/11 02:01:30;;;;;;;5.50;2.22;;;;;;;;;;6186710;23;20439;-61
2023/07/11 02:03:56;;;;;;;4.53;2.30;;;;;;;;;;6212227;23;20094;-61
2023/07/11 02:06:22;;;;;;;6.40;2.50;;;;;;;;;;6212941;23;20423;-61
2023/07/11 02:08:48;;;;;;;5.20;2.15;;;;;;;;;;6213201;23;20021;-61
2023/07/11 02:11:15;;;;;;;5.95;2.28;;;;;;;;;;6212525;23;20055;-61
2023/07/11 02:13:41;;;;;;;7.18;2.35;;;;;;;;;;6213168;23;20070;-61
2023/07/11 02:16:07;;;;;;;4.88;2.22;;;;;;;;;;6212869;23;20830;-61
2023/07/11 02:18:34;;;;;;;2.92;2.10;;;;;;;;;;6212494;23;20021;-61
2023/07/11 02:21:00;;;;;;;6.82;2.28;;;;;;;;;;6213102;23;20020;-61
2023/07/11 02:23:26;;;;;;;6.70;2.65;;;;;;;;;;6212735;23;20427;-61
2023/07/11 02:25:53;;;;;;;8.30;2.55;;;;;;;;;;6212422;23;20044;-61
2023/07/11 02:28:20;;;;;;;6.57;3.42;;;;;;;;;;6212960;23;20027;-61
2023/07/11 02:30:46;;;;;;;7.70;2.63;;;;;;;;;;6213096;23;20092;-61
2023/07/11 02:33:12;;;;;;;6.68;2.40;;;;;;;;;;6212410;23;20013;-61
2023/07/11 02:35:38;;;;;;;4.78;2.10;;;;;;;;;;6212209;23;20038;-61
2023/07/11 02:38:04;;;;;;;3.55;2.10;;;;;;;;;;6212888;23;20103;-61
2023/07/11 02:40:30;;;;;;;5.47;2.03;;;;;;;;;;6212375;23;20292;-61
2023/07/11 02:42:56;;;;;;;5.50;2.50;;;;;;;;;;6212411;23;20048;-61
2023/07/11 02:45:22;;;;;;;6.82;2.45;;;;;;;;;;6212706;23;20008;-61
2023/07/11 02:47:48;;;;;;;5.75;2.10;;;;;;;;;;6212411;23;20062;-61
2023/07/11 02:50:14;;;;;;;7.07;2.50;;;;;;;;;;6212748;23;20069;-61
2023/07/11 02:52:40;;;;;;;6.00;2.33;;;;;;;;;;6212552;23;20028;-61
2023/07/11 02:55:07;;;;;;;7.35;2.53;;;;;;;;;;6212199;23;20012;-61
2023/07/11 02:57:33;;;;;;;5.90;2.25;;;;;;;;;;6212653;23;20012;-61
2023/07/11 02:59:59;;;;;;;5.88;2.30;;;;;;;;;;6212837;23;20371;-61
2023/07/11 03:02:25;;;;;;;6.97;2.83;;;;;;;;;;6212124;23;20485;-61
2023/07/11 03:04:51;;;;;;;8.32;2.50;;;;;;;;;;6212528;23;20120;-61
2023/07/11 03:07:18;;;;;;;4.88;2.45;;;;;;;;;;6212695;23;20059;-61
2023/07/11 03:09:44;;;;;;;8.05;2.30;;;;;;;;;;6212138;23;20008;-61
2023/07/11 03:12:10;;;;;;;10.90;2.88;;;;;;;;;;6212622;23;20012;-61
2023/07/11 03:14:37;;;;;;;7.55;2.65;;;;;;;;;;6212786;23;20079;-61
2023/07/11 03:17:03;;;;;;;10.20;3.10;;;;;;;;;;6212279;23;20506;-61
2023/07/11 03:19:29;;;;;;;6.75;2.70;;;;;;;;;;6212733;23;20535;-61
2023/07/11 03:21:55;;;;;;;7.82;2.63;;;;;;;;;;6212483;23;20073;-61
2023/07/11 03:24:21;;;;;;;9.13;2.42;;;;;;;;;;6212018;23;20088;-61
2023/07/11 03:26:47;;;;;;;7.47;2.45;;;;;;;;;;6212744;23;20022;-61
2023/07/11 03:29:14;;;;;;;4.85;2.35;;;;;;;;;;6214185;23;20338;-61
2023/07/11 03:31:40;;;;;;;5.78;2.63;;;;;;;;;;6214123;23;20127;-61
2023/07/11 03:34:06;;;;;;;6.22;2.50;;;;;;;;;;6214346;23;20013;-61
2023/07/11 03:36:32;;;;;;;5.25;2.50;;;;;;;;;;6214061;23;20020;-61
2023/07/11 03:38:58;;;;;;;5.07;2.53;;;;;;;;;;6214212;23;20344;-61
2023/07/11 03:41:24;;;;;;;9.90;2.78;;;;;;;;;;6214381;23;20487;-61
2023/07/11 03:43:50;;;;;;;5.65;2.95;;;;;;;;;;6214311;23;20058;-61
2023/07/11 03:46:16;;;;;;;4.75;2.78;;;;;;;;;;6213959;23;20017;-61
2023/07/11 03:48:42;;;;;;;6.63;2.75;;;;;;;;;;6214509;23;20467;-61
2023/07/11 03:51:08;;;;;;;7.50;2.97;;;;;;;;;;6187290;23;20087;-61
2023/07/11 03:53:34;;;;;;;8.32;3.05;;;;;;;;;;6213919;23;20012;-61
2023/07/11 03:56:00;;;;;;;8.55;2.97;;;;;;;;;;6214457;23;20016;-61
2023/07/11 03:58:27;;;;;;;5.03;3.25;;;;;;;;;;6214459;23;20024;-61
2023/07/11 04:00:53;;;;;;;6.57;2.80;;;;;;;;;;6213986;23;20375;-61
2023/07/11 04:03:19;;;;;;;5.78;2.88;;;;;;;;;;6214287;23;20096;-61
2023/07/11 04:05:45;;;;;;;3.67;2.38;;;;;;;;;;6214358;23;20005;-61
2023/07/11 04:08:11;;;;;;;9.65;2.95;;;;;;;;;;6213749;23;20087;-61
2023/07/11 04:10:37;;;;;;;6.07;2.90;;;;;;;;;;6214374;23;20020;-61
2023/07/11 04:13:03;;;;;;;5.35;2.58;;;;;;;;;;6214080;23;20008;-61
2023/07/11 04:15:29;;;;;;;6.47;3.03;;;;;;;;;;6213828;23;20418;-61
2023/07/11 04:17:55;;;;;;;8.75;3.53;;;;;;;;;;6214166;23;20017;-61
2023/07/11 04:20:21;;;;;;;7.32;3.65;;;;;;;;;;6213980;23;20024;-61
2023/07/11 04:22:47;;;;;;;5.55;2.97;;;;;;;;;;6213411;23;20016;-61
2023/07/11 04:25:13;;;;;;;7.50;3.00;;;;;;;;;;6214102;23;20008;-61
2023/07/11 04:27:39;;;;;;;7.22;3.17;;;;;;;;;;6187192;23;20071;-61
2023/07/11 04:30:06;;;;;;;7.38;3.15;;;;;;;;;;6213768;23;20016;-61
2023/07/11 04:32:32;;;;;;;7.30;3.17;;;;;;;;;;6213987;23;20363;-61
2023/07/11 04:34:58;;;;;;;6.75;2.97;;;;;;;;;;6214203;23;20074;-61
2023/07/11 04:37:24;;;;;;;7.75;3.35;;;;;;;;;;6214101;23;20016;-61
2023/07/11 04:39:50;;;;;;;10.43;4.18;;;;;;;;;;6214083;23;20162;-61
2023/07/11 04:42:16;;;;;;;6.28;3.65;;;;;;;;;;6214482;23;20533;-61
2023/07/11 04:44:42;;;;;;;6.93;3.33;;;;;;;;;;6214146;23;20089;-61
2023/07/11 04:47:08;;;;;;;5.03;3.30;;;;;;;;;;6213859;23;20017;-61
2023/07/11 04:49:34;;;;;;;8.13;3.90;;;;;;;;;;6212718;23;20439;-61
2023/07/11 04:52:00;;;;;;;10.73;3.85;;;;;;;;;;6214294;23;20020;-61
2023/07/11 04:54:26;;;;;;;7.25;3.90;;;;;;;;;;6213751;23;20017;-61
2023/07/11 04:56:57;;;;;;;10.93;4.28;;;;;;;;;;6214291;23;20040;-61
2023/07/11 04:59:23;;;;;;;9.45;4.75;;;;;;;;;;6214155;23;20013;-61
2023/07/11 05:01:49;;;;;;;7.80;4.43;;;;;;;;;;6213595;23;20009;-61
2023/07/11 05:04:15;;;;;;;7.88;4.85;;;;;;;;;;6213698;23;20020;-61
2023/07/11 05:06:41;;;;;;;6.90;4.40;;;;;;;;;;6208545;23;20112;-61
2023/07/11 05:09:07;;;;;;;8.50;4.80;;;;;;;;;;6212588;23;20063;-61
2023/07/11 05:11:33;;;;;;;6.25;4.22;;;;;;;;;;6213513;23;20023;-61
2023/07/11 05:13:59;;;;;;;9.15;4.38;;;;;;;;;;6213668;23;20012;-61
2023/07/11 05:16:28;;;;;;;7.68;4.70;;;;;;;;;;6213199;23;20453;-61
2023/07/11 05:18:55;;;;;;;14.35;5.10;;;;;;;;;;6213559;23;20020;-61
2023/07/11 05:21:21;;;;;;;10.98;5.05;;;;;;;;;;6213190;23;20023;-61
2023/07/11 05:23:48;;;;;;;9.38;4.72;;;;;;;;;;6186309;23;20020;-61
2023/07/11 05:26:14;;;;;;;9.57;5.15;;;;;;;;;;6213513;23;20012;-61
2023/07/11 05:28:41;;;;;;;8.65;4.90;;;;;;;;;;6213347;23;20021;-61
2023/07/11 05:31:07;;;;;;;8.93;5.05;;;;;;;;;;6213085;23;20039;-61
2023/07/11 05:33:34;;;;;;;11.00;5.25;;;;;;;;;;6213600;23;20020;-61
2023/07/11 05:36:21;;;;;;;8.35;5.63;;;;;;;;;;6212957;23;20020;-61
2023/07/11 05:38:47;;;;;;;11.75;5.15;;;;;;;;;;6212880;23;20017;-61
2023/07/11 05:41:13;;;;;;;11.70;4.90;;;;;;;;;;6213163;23;20016;-61
2023/07/11 05:43:39;;;;;;;9.75;5.45;;;;;;;;;;6213453;23;20092;-61
2023/07/11 05:46:05;;;;;;;7.30;5.28;;;;;;;;;;6212517;23;20429;-61
2023/07/11 05:48:31;;;;;;;9.65;5.28;;;;;;;;;;6212692;23;20035;-61
2023/07/11 05:50:58;;;;;;;10.40;5.68;;;;;;;;;;6213269;23;20023;-61
2023/07/11 05:53:25;;;;;;;10.75;5.82;;;;;;;;;;6212147;23;20012;-61
2023/07/11 05:55:51;;;;;;;7.20;5.05;;;;;;;;;;6213252;23;20027;-61
2023/07/11 05:58:17;;;;;;;7.97;4.93;;;;;;;;;;6211028;23;20395;-60
2023/07/11 06:00:43;;;;;;;10.07;5.30;;;;;;;;;;6212214;23;20023;-60
2023/07/11 06:03:09;;;;;;;9.00;4.93;;;;;;;;;;6212711;23;20103;-60
2023/07/11 06:05:35;;;;;;;11.13;5.55;;;;;;;;;;6212627;23;20011;-61
2023/07/11 06:08:01;;;;;;;7.97;4.82;;;;;;;;;;6212422;23;20022;-61
2023/07/11 06:10:28;;;;;;;13.38;5.43;;;;;;;;;;6212711;23;20044;-62
2023/07/11 06:12:54;;;;;;;9.32;4.88;;;;;;;;;;6212806;23;20372;-62
2023/07/11 06:15:21;;;;;;;8.50;4.78;;;;;;;;;;6212568;23;20462;-62
2023/07/11 06:17:47;;;;;;;7.97;4.85;;;;;;;;;;6212160;23;20013;-62
2023/07/11 06:20:13;;;;;;;9.38;5.78;;;;;;;;;;6213082;23;20309;-62
2023/07/11 06:22:39;;;;;;;9.63;4.72;;;;;;;;;;6212285;23;20509;-60
2023/07/11 06:25:05;;;;;;;12.93;4.68;;;;;;;;;;6212274;23;20016;-62
2023/07/11 06:27:31;;;;;;;7.40;4.90;;;;;;;;;;6212497;23;20020;-62
2023/07/11 06:29:57;;;;;;;12.63;4.50;;;;;;;;;;6206619;23;20020;-61
2023/07/11 06:32:23;;;;;;;9.50;5.47;;;;;;;;;;6210705;23;20017;-61
2023/07/11 06:34:49;;;;;;;11.55;5.40;;;;;;;;;;6211427;23;20031;-61
2023/07/11 06:37:15;;;;;;;10.02;4.88;;;;;;;;;;6211884;23;20017;-60
2023/07/11 06:39:41;;;;;;;13.40;5.40;;;;;;;;;;6211409;23;20094;-60
2023/07/11 06:42:07;;;;;;;11.40;4.78;;;;;;;;;;6203455;23;20021;-61
2023/07/11 06:44:35;;;;;;;11.48;5.15;;;;;;;;;;6210877;23;20304;-62
2023/07/11 06:47:01;;;;;;;10.77;4.93;;;;;;;;;;6211753;23;20021;-61
2023/07/11 06:49:27;;;;;;;6.72;4.45;;;;;;;;;;6211438;23;20020;-60
2023/07/11 06:51:53;;;;;;;7.75;4.07;;;;;;;;;;6210418;23;20713;-60
2023/07/11 06:54:19;;;;;;;11.35;4.72;;;;;;;;;;6211416;23;20048;-60
2023/07/11 06:56:45;;;;;;;10.48;4.30;;;;;;;;;;6211307;23;20016;-60
2023/07/11 06:59:19;;;;;;;9.85;4.57;;;;;;;;;;6211240;23;20016;-60
2023/07/11 07:01:45;;;;;;;10.07;4.57;;;;;;;;;;6210943;23;20012;-61
2023/07/11 07:04:13;;;;;;;8.30;4.22;;;;;;;;;;6211489;23;20020;-61
2023/07/11 07:06:40;;;;;;;7.80;4.35;;;;;;;;;;6208734;23;20008;-61
2023/07/11 07:09:06;;;;;;;9.25;4.25;;;;;;;;;;6212296;23;20440;-61
2023/07/11 07:11:35;;;;;;;6.80;3.97;;;;;;;;;;6211819;23;20013;-60
2023/07/11 07:14:01;;;;;;;6.45;3.92;;;;;;;;;;6211360;23;20059;-61
2023/07/11 07:16:30;;;;;;;7.70;4.13;;;;;;;;;;6211947;23;20022;-60
2023/07/11 07:18:56;;;;;;;8.63;4.80;;;;;;;;;;6212105;23;20013;-62
2023/07/11 07:21:22;;;;;;;6.68;4.03;;;;;;;;;;6210969;23;20101;-60
2023/07/11 07:23:48;;;;;;;9.23;4.43;;;;;;;;;;6212064;23;20028;-61
2023/07/11 07:26:14;;;;;;;10.80;4.32;;;;;;;;;;6212025;23;20019;-60
2023/07/11 07:28:40;;;;;;;8.02;4.20;;;;;;;;;;6211282;23;20768;-60
2023/07/11 07:31:07;;;;;;;9.50;4.75;;;;;;;;;;6211475;23;20052;-62
2023/07/11 07:33:33;;;;;;;12.00;4.95;;;;;;;;;;6211531;23;20395;-60
2023/07/11 07:36:00;;;;;;;9.45;4.45;;;;;;;;;;6210958;23;20016;-60
2023/07/11 07:38:30;;;;;;;9.60;4.18;;;;;;;;;;6211935;23;20031;-60
2023/07/11 07:40:57;;;;;;;11.13;4.38;;;;;;;;;;6211397;23;20502;-60
2023/07/11 07:43:23;;;;;;;10.00;3.90;;;;;;;;;;6211365;23;20024;-60
2023/07/11 07:45:50;;;;;;;7.07;3.70;;;;;;;;;;6211475;23;20016;-61
2023/07/11 07:48:16;;;;;;;11.93;4.90;;;;;;;;;;6212154;23;20067;-60
2023/07/11 07:50:42;;;;;;;11.88;4.53;;;;;;;;;;6207931;23;20043;-60
2023/07/11 07:53:08;;;;;;;8.05;3.90;;;;;;;;;;6211136;23;20017;-60
2023/07/11 07:55:38;;;;;;;11.32;4.00;;;;;;;;;;6211808;23;20063;-61
2023/07/11 07:58:05;;;;;;;8.90;4.15;;;;;;;;;;6208967;23;20016;-62
2023/07/11 08:00:31;;;;;;;9.35;3.97;;;;;;;;;;6209224;23;20024;-61
2023/07/11 08:02:57;;;;;;;15.70;4.10;;;;;;;;;;6209956;23;20078;-61
2023/07/11 08:05:24;;;;;;;7.57;4.00;;;;;;;;;;6210378;23;20038;-61
2023/07/11 08:07:50;;;;;;;7.53;3.55;;;;;;;;;;6211177;23;20028;-61
2023/07/11 08:10:16;;;;;;;10.73;3.67;;;;;;;;;;6210494;23;20344;-61
2023/07/11 08:12:43;;;;;;;7.93;2.92;;;;;;;;;;6208842;23;20436;-61
2023/07/11 08:15:09;;;;;;;10.30;3.33;;;;;;;;;;6211448;23;20052;-61
2023/07/11 08:17:35;;;;;;;7.63;2.88;;;;;;;;;;6185833;23;20024;-63
2023/07/11 08:20:02;;;;;;;9.20;3.28;;;;;;;;;;6211971;23;20686;-63
2023/07/11 08:22:28;;;;;;;6.85;2.80;;;;;;;;;;6208770;23;20020;-62
2023/07/11 08:24:54;;;;;;;5.05;3.00;;;;;;;;;;6211845;23;20019;-61
2023/07/11 08:27:20;;;;;;;5.70;2.58;;;;;;;;;;6211777;23;20013;-61
2023/07/11 08:29:46;;;;;;;7.32;2.90;;;;;;;;;;6209497;23;20013;-61
2023/07/11 08:32:13;;;;;;;6.78;2.70;;;;;;;;;;6211917;23;20025;-60
2023/07/11 08:34:39;;;;;;;7.18;2.45;;;;;;;;;;6211252;23;20012;-60
2023/07/11 08:37:05;;;;;;;7.38;2.95;;;;;;;;;;6206738;23;20379;-61
2023/07/11 08:39:31;;;;;;;6.15;2.70;;;;;;;;;;6211494;23;20035;-61
2023/07/11 08:42:01;;;;;;;10.55;3.10;;;;;;;;;;6210958;23;20954;-61
2023/07/11 08:44:35;;;;;;;5.57;2.28;;;;;;;;;;6209229;23;20079;-61
2023/07/11 08:47:06;;;;;;;7.72;2.15;;;;;;;;;;6209561;23;20098;-61
2023/07/11 08:49:35;;;;;;;7.97;1.90;;;;;;;;;;6210684;23;20091;-60
2023/07/11 08:52:02;;;;;;;5.93;2.20;;;;;;;;;;6211060;23;20096;-61
2023/07/11 08:54:50;;;;;;;7.43;2.10;;;;;;;;;;6208530;23;20012;-61
2023/07/11 08:57:18;;;;;;;8.93;1.95;;;;;;;;;;6211373;23;20012;-60
2023/07/11 09:00:05;;;;;;;4.82;1.90;;;;;;;;;;6211230;23;20039;-61
2023/07/11 09:02:37;;;;;;;5.28;2.30;;;;;;;;;;6210896;23;20008;-61
2023/07/11 09:05:04;;;;;;;5.47;2.35;;;;;;;;;;6211173;23;20016;-60
2023/07/11 09:07:40;;;;;;;5.25;2.20;;;;;;;;;;6211943;23;20020;-62
2023/07/11 09:10:33;;;;;;;7.22;2.10;;;;;;;;;;6211224;23;20452;-61
2023/07/11 09:12:59;;;;;;;;;;;;;;;;;;6164762;23;20376;-60
2023/07/11 09:15:28;;;;;;;8.45;2.40;;;;;;;;;;6211290;23;19915;-62
2023/07/11 09:18:13;;;;;;;5.70;2.15;;;;;;;;;;6211269;23;20032;-61
2023/07/11 09:20:59;;;;;;;6.88;2.20;;;;;;;;;;6210445;23;20016;-62
2023/07/11 09:23:43;;;;;;;6.68;1.90;;;;;;;;;;6210322;23;20023;-61
2023/07/11 09:26:13;;;;;;;9.35;2.08;;;;;;;;;;6211432;23;20052;-61
2023/07/11 09:28:41;;;;;;;7.15;2.28;;;;;;;;;;6211526;23;20066;-61
2023/07/11 09:31:09;;;;;;;7.32;2.05;;;;;;;;;;6211238;23;20015;-62
2023/07/11 09:33:39;;;;;;;5.13;1.88;;;;;;;;;;6210017;23;20012;-63
2023/07/11 09:36:16;;;;;;;7.30;2.03;;;;;;;;;;6210864;23;20462;-62
2023/07/11 09:38:46;;;;;;;4.93;1.73;;;;;;;;;;6211402;23;20293;-62
2023/07/11 09:41:17;;;;;;;3.58;1.67;;;;;;;;;;6210239;23;20024;-62
2023/07/11 09:43:43;;;;;;;8.25;1.98;;;;;;;;;;6210709;23;20020;-64
2023/07/11 09:46:13;;;;;;;5.50;1.90;;;;;;;;;;6211753;23;20012;-62
2023/07/11 09:48:40;;;;;;;4.00;1.60;;;;;;;;;;6211188;23;20048;-62
2023/07/11 09:51:13;;;;;;;5.45;1.92;;;;;;;;;;6210151;23;20016;-62
2023/07/11 09:53:43;;;;;;;4.53;1.88;;;;;;;;;;6210759;23;20035;-62
2023/07/11 09:56:13;;;;;;;6.82;2.10;;;;;;;;;;6211354;23;20020;-61
2023/07/11 09:58:40;;;;;;;4.93;1.88;;;;;;;;;;6210905;23;20008;-61
2023/07/11 10:01:07;;;;;;;6.72;1.85;;;;;;;;;;6210395;23;20051;-62
2023/07/11 10:03:37;;;;;;;8.68;1.88;;;;;;;;;;6210394;23;20016;-62
2023/07/11 10:06:04;;;;;;;7.85;2.00;;;;;;;;;;6211129;23;20013;-62
2023/07/11 10:08:34;;;;;;;6.70;2.00;;;;;;;;;;6210855;23;20440;-62
2023/07/11 10:11:11;;;;;;;8.20;2.20;;;;;;;;;;6209870;23;20448;-61
2023/07/11 10:13:37;;;;;;;5.20;2.13;;;;;;;;;;6210927;23;20091;-63
2023/07/11 10:16:05;;;;;;;4.80;1.98;;;;;;;;;;6210330;23;20590;-64
2023/07/11 10:18:33;;;;;;;5.80;2.30;;;;;;;;;;6210552;23;20026;-64
2023/07/11 10:21:19;;;;;;;5.07;1.95;;;;;;;;;;6210253;23;20293;-63
2023/07/11 10:23:47;;;;;;;7.47;2.22;;;;;;;;;;6209853;23;20016;-63
2023/07/11 10:26:23;;;;;;;7.55;2.25;;;;;;;;;;6207676;23;20102;-63
2023/07/11 10:28:52;;;;;;;6.55;1.73;;;;;;;;;;6184273;23;20350;-63
2023/07/11 10:31:27;;;;;;;7.07;2.17;;;;;;;;;;6209622;23;20015;-63
2023/07/11 10:34:14;;;;;;;7.15;2.15;;;;;;;;;;6210419;23;20017;-63
2023/07/11 10:36:47;;;;;;;5.80;1.90;;;;;;;;;;6210620;23;20111;-63
2023/07/11 10:39:15;;;;;;;4.63;1.73;;;;;;;;;;6210240;23;20059;-64
2023/07/11 10:41:50;;;;;;;7.93;1.90;;;;;;;;;;6210265;23;20021;-63
2023/07/11 10:44:28;;;;;;;4.85;1.80;;;;;;;;;;6209472;23;20427;-64
2023/07/11 10:46:55;;;;;;;5.30;2.13;;;;;;;;;;6211482;23;20068;-64
2023/07/11 10:49:27;;;;;;;9.23;2.10;;;;;;;;;;6211289;23;20012;-64
2023/07/11 10:52:21;;;;;;;7.25;2.10;;;;;;;;;;6211551;23;20005;-64
2023/07/11 10:54:56;;;;;;;5.63;1.95;;;;;;;;;;6206028;23;20017;-64
2023/07/11 10:57:31;;;;;;;5.38;1.80;;;;;;;;;;6212069;23;20020;-64
2023/07/11 10:59:57;;;;;;;6.15;2.15;;;;;;;;;;6211774;23;20083;-64
2023/07/11 11:02:32;;;;;;;6.93;2.00;;;;;;;;;;6212065;23;20012;-64
2023/07/11 11:04:58;;;;;;;6.25;1.80;;;;;;;;;;6211299;23;20094;-64
2023/07/11 11:07:26;;;;;;;4.53;1.60;;;;;;;;;;6210820;23;20443;-64
2023/07/11 11:10:06;;;;;;;5.07;1.67;;;;;;;;;;6210752;23;20012;-64
2023/07/11 11:12:51;;;;;;;4.22;1.77;;;;;;;;;;6211008;23;20013;-64
2023/07/11 11:15:31;;;;;;;5.07;1.92;;;;;;;;;;6211383;23;20083;-64
2023/07/11 11:17:57;;;;;;;4.82;1.77;;;;;;;;;;6210730;23;20012;-62
2023/07/11 11:20:33;;;;;;;4.90;1.70;;;;;;;;;;6209592;23;20505;-64
2023/07/11 11:22:58;;;;;;;4.03;1.70;;;;;;;;;;6210742;23;20019;-63
2023/07/11 11:25:27;;;;;;;5.05;1.80;;;;;;;;;;6211076;23;20323;-64
2023/07/11 11:27:56;;;;;;;11.32;2.13;;;;;;;;;;6210991;23;20432;-64
2023/07/11 11:30:22;;;;;;;6.15;2.03;;;;;;;;;;6211782;23;20028;-64
2023/07/11 11:32:52;;;;;;;7.72;2.15;;;;;;;;;;6210114;23;20013;-65
2023/07/11 11:35:37;;;;;;;6.82;1.83;;;;;;;;;;6211281;23;20048;-64
2023/07/11 11:38:22;;;;;;;3.70;1.70;;;;;;;;;;6211442;23;20017;-65
2023/07/11 11:40:50;;;;;;;5.47;1.80;;;;;;;;;;6205933;23;20019;-64
2023/07/11 11:43:17;;;;;;;4.43;1.88;;;;;;;;;;6210618;23;20008;-63
2023/07/11 11:45:44;;;;;;;4.82;2.10;;;;;;;;;;6211297;23;20023;-63
2023/07/11 11:48:16;;;;;;;6.32;2.00;;;;;;;;;;6210628;23;20012;-64
2023/07/11 11:50:42;;;;;;;4.05;1.92;;;;;;;;;;6212506;23;20507;-64
2023/07/11 11:53:17;;;;;;;3.50;1.70;;;;;;;;;;6213887;23;20019;-64
2023/07/11 11:55:50;;;;;;;6.05;1.90;;;;;;;;;;6211543;23;20016;-65
2023/07/11 11:58:17;;;;;;;7.72;2.22;;;;;;;;;;6212820;23;20658;-65
2023/07/11 12:00:48;;;;;;;5.57;2.00;;;;;;;;;;6213476;23;20023;-66
2023/07/11 12:03:19;;;;;;;6.80;2.13;;;;;;;;;;6186415;23;20159;-66
2023/07/11 12:05:52;;;;;;;4.95;1.77;;;;;;;;;;6186115;23;20020;-65
2023/07/11 12:08:25;;;;;;;4.20;1.90;;;;;;;;;;6212446;23;20048;-64
2023/07/11 12:11:02;;;;;;;3.65;1.73;;;;;;;;;;6212891;23;20017;-65
2023/07/11 12:13:30;;;;;;;3.08;1.80;;;;;;;;;;6213451;23;20016;-66
2023/07/11 12:15:57;;;;;;;4.40;2.00;;;;;;;;;;6213139;23;20048;-64
2023/07/11 12:18:29;;;;;;;5.32;2.00;;;;;;;;;;6212644;23;20040;-64
2023/07/11 12:21:06;;;;;;;8.32;2.20;;;;;;;;;;6212915;23;20100;-66
2023/07/11 12:23:33;;;;;;;6.85;2.25;;;;;;;;;;6212379;23;20017;-65
2023/07/11 12:26:09;;;;;;;4.30;1.80;;;;;;;;;;6211754;23;20055;-65
2023/07/11 12:28:35;;;;;;;3.38;2.03;;;;;;;;;;6212428;23;20094;-64
2023/07/11 12:31:16;;;;;;;5.05;1.90;;;;;;;;;;6212026;23;20603;-64
2023/07/11 12:33:42;;;;;;;4.53;2.10;;;;;;;;;;6212014;23;20021;-64
2023/07/11 12:36:31;;;;;;;8.38;1.85;;;;;;;;;;6211616;23;20440;-64
2023/07/11 12:39:00;;;;;;;4.93;1.83;;;;;;;;;;6211664;23;20025;-64
2023/07/11 12:41:36;;;;;;;5.93;1.80;;;;;;;;;;6211255;23;20023;-63
2023/07/11 12:44:04;;;;;;;3.67;1.88;;;;;;;;;;6211356;23;20048;-64
2023/07/11 12:46:34;;;;;;;8.23;2.13;;;;;;;;;;6210379;23;20023;-64
2023/07/11 12:49:02;;;;;;;5.07;1.95;;;;;;;;;;6211730;23;20024;-63
2023/07/11 12:51:32;;;;;;;4.72;2.03;;;;;;;;;;6212341;23;20696;-63
2023/07/11 12:54:00;;;;;;;3.83;2.22;;;;;;;;;;6211695;23;20324;-63
2023/07/11 12:56:28;;;;;;;7.18;2.00;;;;;;;;;;6211129;23;20016;-63
2023/07/11 12:58:54;;;;;;;5.60;2.22;;;;;;;;;;6212279;23;20048;-64
2023/07/11 13:01:20;;;;;;;4.05;1.80;;;;;;;;;;6211147;23;20032;-65
2023/07/11 13:03:46;;;;;;;6.75;2.15;;;;;;;;;;6212320;23;20016;-63
2023/07/11 13:06:22;;;;;;;4.50;1.92;;;;;;;;;;6212236;23;20008;-64
2023/07/11 13:08:48;;;;;;;6.05;2.00;;;;;;;;;;6183264;23;20095;-63
2023/07/11 13:11:17;;;;;;;7.10;2.30;;;;;;;;;;6211410;23;20012;-64
2023/07/11 13:13:43;;;;;;;4.60;2.33;;;;;;;;;;6211204;23;20064;-64
2023/07/11 13:16:11;;;;;;;3.65;2.13;;;;;;;;;;6209589;23;20374;-64
2023/07/11 13:18:41;;;;;;;3.78;1.88;;;;;;;;;;6208361;23;20054;-64
2023/07/11 13:21:09;;;;;;;4.82;2.13;;;;;;;;;;6211163;23;20058;-64
2023/07/11 13:23:36;;;;;;;4.28;1.95;;;;;;;;;;6211798;23;20080;-64
2023/07/11 13:26:09;;;;;;;5.35;1.95;;;;;;;;;;6209237;23;20110;-63
2023/07/11 13:28:36;;;;;;;7.38;2.30;;;;;;;;;;6210710;23;20347;-62
2023/07/11 13:31:03;;;;;;;5.70;2.30;;;;;;;;;;6211432;23;20012;-62
2023/07/11 13:33:34;;;;;;;4.22;1.75;;;;;;;;;;6211385;23;20090;-63
2023/07/11 13:36:05;;;;;;;5.30;2.25;;;;;;;;;;6211925;23;20749;-63
2023/07/11 13:38:41;;;;;;;8.60;2.53;;;;;;;;;;6211880;23;20024;-64
2023/07/11 13:41:15;;;;;;;4.30;2.03;;;;;;;;;;6212307;23;20091;-63
2023/07/11 13:43:41;;;;;;;3.92;2.08;;;;;;;;;;6212283;23;20059;-63
2023/07/11 13:46:08;;;;;;;5.07;1.90;;;;;;;;;;6212122;23;20063;-62
2023/07/11 13:48:34;;;;;;;7.45;2.80;;;;;;;;;;6212441;23;20704;-63
2023/07/11 13:51:19;;;;;;;7.32;2.22;;;;;;;;;;6212935;23;20432;-62
2023/07/11 13:53:49;;;;;;;5.75;2.13;;;;;;;;;;6212176;23;20017;-62
2023/07/11 13:56:15;;;;;;;8.60;2.57;;;;;;;;;;6212650;23;20020;-63
2023/07/11 13:58:42;;;;;;;9.93;2.58;;;;;;;;;;6212543;23;20075;-62
2023/07/11 14:01:12;;;;;;;7.03;2.00;;;;;;;;;;6212118;23;20020;-62
2023/07/11 14:03:38;;;;;;;6.15;2.20;;;;;;;;;;6212558;23;20016;-63
2023/07/11 14:06:04;;;;;;;6.18;2.15;;;;;;;;;;6212238;23;20023;-62
2023/07/11 14:08:30;;;;;;;7.60;2.15;;;;;;;;;;6211802;23;20052;-64
2023/07/11 14:10:57;;;;;;;5.75;2.20;;;;;;;;;;6212882;23;20023;-64
2023/07/11 14:13:24;;;;;;;4.70;2.20;;;;;;;;;;6212029;23;20301;-63
2023/07/11 14:15:50;;;;;;;5.57;2.13;;;;;;;;;;6212031;23;20016;-63
2023/07/11 14:18:16;;;;;;;5.68;2.28;;;;;;;;;;6212249;23;20024;-61
2023/07/11 14:20:43;;;;;;;5.75;2.15;;;;;;;;;;6212433;23;20014;-62
2023/07/11 14:23:13;;;;;;;6.55;2.10;;;;;;;;;;6211901;23;20091;-62
2023/07/11 14:25:39;;;;;;;8.50;2.15;;;;;;;;;;6185478;23;20016;-62
2023/07/11 14:28:05;;;;;;;3.42;2.20;;;;;;;;;;6211880;23;20332;-64
2023/07/11 14:30:31;;;;;;;6.85;2.20;;;;;;;;;;6212030;23;20016;-64
2023/07/11 14:32:57;;;;;;;10.63;2.22;;;;;;;;;;6212332;23;20013;-62
2023/07/11 14:35:25;;;;;;;13.15;2.20;;;;;;;;;;6212051;23;20051;-63
2023/07/11 14:37:51;;;;;;;5.95;2.47;;;;;;;;;;6211699;23;20028;-63
2023/07/11 14:40:18;;;;;;;4.95;2.00;;;;;;;;;;6212492;23;20027;-64
2023/07/11 14:42:44;;;;;;;8.00;2.00;;;;;;;;;;6212216;23;20016;-63
2023/07/11 14:45:16;;;;;;;7.05;2.22;;;;;;;;;;6212137;23;20105;-63
2023/07/11 14:47:42;;;;;;;4.78;2.35;;;;;;;;;;6211903;23;20027;-64